Corsicana, TX

5:57 PM CDT on September 03, 2015 (GMT -0500)
Bowie - Collins School area | | Change Station
CLOSE
Current Station
Personal Weather Station
Location: Corsicana, TX
Elevation: 433 ft
Nearby Weather Stations

Elev 433 ft 32.11 °N, 96.49 °W | Updated 22 seconds ago

Mostly Cloudy
Mostly Cloudy
90.1 °F
Feels Like 95 °F
N
0.0
Wind Variable Wind from SSE
Gusts 0.0 mph

Today
High -- | Low -- °F
--% Chance of Precip.
Yesterday
High -- | Low -- °F
Precip. -- in
7:02 AM 7:47 PM
Waning Gibbous, 66% visible
Pressure 29.86 in
Visibility 10.0 miles
Clouds Clear
Heat Index 95 °F
Dew Point 69 °F
Humidity 50%
Rainfall 0.00 in
Snow Depth Not available.
UV 1.0 out of 12
Pollen 8.80 out of 12
Air Quality Not available.
Flu Activity Not available.
METAR KCRS 032253Z AUTO 15005KT 10SM CLR 34/19 A2987 RMK AO2 SLP109 T03390189
Pressure 29.86 in
Visibility 10.0 miles
Clouds Clear
Heat Index 95 °F
Dew Point 69 °F
Humidity 50%
Rainfall 0.00 in
Snow Depth Not available.
UV 1.0 out of 12
Pollen 8.80 out of 12
Air Quality Not available.
Flu Activity Not available.
METAR KCRS 032253Z AUTO 15005KT 10SM CLR 34/19 A2987 RMK AO2 SLP109 T03390189
Nowcast | as of 5:55 PM CDT on September 3, 2015

Isolated showers will continue over the next one to two hours mainly for areas along and southeast of a Killeen to Waco to Canton line. A few rumbles of thunder will also be possible. The main hazards with thunderstorms...should they develop...will be gusty winds and occasional cloud to ground lightning. Rain amounts should remain light with totals generally under one quarter of an inch. Otherwise...hot conditions will continue over the next several hours with temperatures in the low to mid 90s.

×

10-Day Weather Forecast

×

Almanac

Astronomy

Sep. 03, 2015 Rise Set
Actual Time
Civil Twilight
Nautical Twilight
Astronomical Twilight
Moon
Length of Visible Light
Length of Day
Tomorrow will be .
, % of the Moon is Illuminated

Today's Extremes

State Highs State Lows

Community

WunderPhotos

Upload Photos

1,852,049 photos uploaded!

WunderBlogs® & News

Nearby

Air Quality

  Air Quality AQ Index Pollutant
Not available.

Snow Depth

Station Depth Elevation

Earthquake Activity

City Distance Mag. Time & Date
Minimum magnitude displayed is 2.5.

Coastal Water Temperatures

Place Temperature

Stations

Nearby Weather Stations

Station Location Temp. Windchill Dew Point Humidity Wind Precip. Elev Updated Type